Time;durP1;ratioP1;P1;durP2;ratioP2;P2;SDS_P1;SDS_P2;PMS_P1;PMS_P2;Temp;Humidity;BMP_temperature;BMP_pressure;BME280_temperature;BME280_humidity;BME280_pressure;Samples;Min_cycle;Max_cycle;Signal;HPM_P1;HPM_P2
2021/09/13 00:01:55;;;;;;;30.25;6.35;;;;;;;13.33;65.17;100148.06;10392793;28;20421;-65
2021/09/13 00:06:57;;;;;;;6.00;3.50;;;;;;;13.29;65.29;100141.34;10392806;28;20058;-65
2021/09/13 00:11:59;;;;;;;6.95;3.83;;;;;;;13.34;65.17;100136.59;10392241;28;20060;-64
2021/09/13 00:17:00;;;;;;;7.80;4.50;;;;;;;13.23;65.60;100139.13;10392313;28;20072;-64
2021/09/13 00:22:02;;;;;;;15.68;5.20;;;;;;;13.31;65.28;100134.19;10400877;28;20053;-65
2021/09/13 00:27:04;;;;;;;18.58;5.93;;;;;;;13.14;65.50;100135.31;10400725;28;20173;-65
2021/09/13 00:32:06;;;;;;;7.00;4.43;;;;;;;13.11;65.65;100122.38;10400468;28;20064;-65
2021/09/13 00:37:08;;;;;;;8.63;3.72;;;;;;;13.05;65.76;100124.59;10399908;28;20221;-65
2021/09/13 00:42:09;;;;;;;10.30;3.85;;;;;;;13.10;65.49;100114.63;10400162;28;20057;-65
2021/09/13 00:47:11;;;;;;;8.98;4.00;;;;;;;13.03;65.84;100127.31;10399622;28;20175;-65
2021/09/13 00:52:14;;;;;;;11.43;4.22;;;;;;;12.98;66.25;100122.34;10399893;28;20061;-65
2021/09/13 00:57:16;;;;;;;27.80;5.13;;;;;;;13.01;65.93;100117.84;10399386;28;20067;-65
2021/09/13 01:02:18;;;;;;;12.55;3.80;;;;;;;12.98;66.29;100114.47;10399751;28;20057;-65
2021/09/13 01:07:20;;;;;;;56.30;5.63;;;;;;;13.00;66.27;100105.69;10399063;28;20057;-65
2021/09/13 01:12:22;;;;;;;18.73;5.00;;;;;;;13.00;66.19;100110.91;10398943;28;20525;-65
2021/09/13 01:17:23;;;;;;;49.13;5.05;;;;;;;12.86;66.28;100112.66;10398341;28;20421;-65
2021/09/13 01:22:27;;;;;;;108.88;7.03;;;;;;;12.93;66.03;100123.59;10397443;28;20064;-65
2021/09/13 01:27:29;;;;;;;14.85;3.92;;;;;;;13.08;66.17;100113.88;10397229;28;20063;-65
2021/09/13 01:32:31;;;;;;;13.98;4.10;;;;;;;13.02;66.03;100116.91;10397709;28;20053;-65
2021/09/13 01:37:32;;;;;;;32.03;4.30;;;;;;;13.01;65.92;100121.31;10396499;28;20553;-65
2021/09/13 01:42:34;;;;;;;69.72;6.88;;;;;;;12.94;65.99;100118.25;10398084;28;20076;-65
2021/09/13 01:47:36;;;;;;;65.78;6.20;;;;;;;12.92;66.30;100109.63;10397499;28;20674;-65
2021/09/13 01:52:38;;;;;;;25.92;4.03;;;;;;;12.83;66.38;100114.66;10396319;28;20063;-65
2021/09/13 01:57:39;;;;;;;16.15;4.07;;;;;;;12.88;66.21;100123.91;10397576;28;20058;-65
2021/09/13 02:02:41;;;;;;;241.93;8.57;;;;;;;12.93;66.23;100126.22;10396863;28;20057;-65
2021/09/13 02:07:43;;;;;;;115.70;5.82;;;;;;;12.82;66.46;100115.63;10395574;28;20060;-65
2021/09/13 02:12:45;;;;;;;27.50;4.90;;;;;;;12.78;66.33;100112.34;10396539;28;20141;-65
2021/09/13 02:17:46;;;;;;;89.45;5.43;;;;;;;12.73;66.70;100109.19;10396171;28;20790;-65
2021/09/13 02:22:49;;;;;;;281.90;8.30;;;;;;;12.76;66.76;100118.66;10395828;28;20409;-65
2021/09/13 02:27:51;;;;;;;172.05;6.28;;;;;;;12.73;66.82;100121.47;10396270;28;20064;-65
2021/09/13 02:32:53;;;;;;;554.17;16.98;;;;;;;12.71;66.57;100113.69;10395870;28;20749;-65
2021/09/13 02:37:55;;;;;;;128.80;5.50;;;;;;;12.75;66.77;100106.47;10395708;28;20436;-65
2021/09/13 02:42:57;;;;;;;381.30;11.32;;;;;;;12.66;66.96;100113.13;10394734;28;20060;-65
2021/09/13 02:47:59;;;;;;;150.65;6.63;;;;;;;12.71;66.70;100113.69;10394868;28;20054;-65
2021/09/13 02:53:01;;;;;;;419.98;11.15;;;;;;;12.73;66.67;100114.44;10394880;28;20110;-65
2021/09/13 02:58:02;;;;;;;299.25;9.32;;;;;;;12.69;66.55;100109.47;10395466;28;20053;-64
2021/09/13 03:03:04;;;;;;;722.15;18.40;;;;;;;12.46;66.90;100115.38;10395017;28;20317;-64
2021/09/13 03:08:06;;;;;;;492.20;12.32;;;;;;;12.44;67.37;100112.00;10394423;28;20049;-65
2021/09/13 03:13:08;;;;;;;370.10;10.73;;;;;;;12.53;67.06;100121.91;10394399;28;20053;-65
2021/09/13 03:18:10;;;;;;;525.97;14.07;;;;;;;12.56;67.03;100121.72;10394141;28;20759;-65
2021/09/13 03:23:12;;;;;;;172.23;6.20;;;;;;;12.53;67.07;100121.91;10393640;28;20140;-65
2021/09/13 03:28:13;;;;;;;133.25;5.93;;;;;;;12.52;67.14;100115.81;10393808;28;20766;-64
2021/09/13 03:33:15;;;;;;;117.25;5.72;;;;;;;12.62;67.03;100122.16;10393682;28;20057;-64
2021/09/13 03:38:17;;;;;;;355.88;10.23;;;;;;;12.54;67.04;100124.44;10393289;28;20232;-64
2021/09/13 03:43:19;;;;;;;217.45;7.32;;;;;;;12.51;67.14;100119.41;10393387;28;20045;-64
2021/09/13 03:48:22;;;;;;;70.53;5.97;;;;;;;12.45;67.24;100114.56;10393725;28;20060;-64
2021/09/13 03:53:23;;;;;;;79.35;6.53;;;;;;;12.50;66.93;100119.47;10392895;28;20057;-64
2021/09/13 03:58:25;;;;;;;24.45;3.50;;;;;;;12.47;66.91;100115.28;10393035;28;20058;-64
2021/09/13 04:03:36;;;;;;;25.83;4.40;;;;;;;12.45;66.62;100118.94;10392952;28;20053;-64
2021/09/13 04:09:02;;;;;;;20.08;3.40;;;;;;;12.43;66.35;100113.81;10392828;28;20061;-64
2021/09/13 04:14:00;;;;;;;17.90;3.22;;;;;;;12.43;66.12;100126.94;10392543;28;20053;-64
2021/09/13 04:19:02;;;;;;;68.60;3.90;;;;;;;12.32;66.00;100123.28;10393275;28;20049;-65
2021/09/13 04:24:04;;;;;;;35.25;3.10;;;;;;;12.21;66.54;100126.59;10392037;28;20802;-65
2021/09/13 04:29:06;;;;;;;20.33;3.25;;;;;;;12.18;66.40;100126.75;10392370;28;20049;-65
2021/09/13 04:34:07;;;;;;;23.52;3.55;;;;;;;12.04;66.38;100118.94;10392274;28;20054;-65
2021/09/13 04:39:09;;;;;;;62.72;4.25;;;;;;;12.12;66.34;100120.13;10392255;28;20056;-65
2021/09/13 04:44:11;;;;;;;62.53;4.50;;;;;;;12.17;66.28;100119.84;10392053;28;20149;-65
2021/09/13 04:49:12;;;;;;;11.88;2.97;;;;;;;12.24;66.54;100125.53;10392053;28;20067;-65
2021/09/13 04:54:14;;;;;;;228.63;7.05;;;;;;;12.23;66.25;100134.34;10390525;28;20065;-65
2021/09/13 04:59:15;;;;;;;108.05;5.22;;;;;;;12.24;66.09;100125.53;10392133;28;20145;-65
2021/09/13 05:04:17;;;;;;;71.68;4.47;;;;;;;12.17;66.13;100130.34;10394324;28;20046;-65
2021/09/13 05:09:19;;;;;;;151.57;5.50;;;;;;;12.18;66.13;100132.00;10398621;28;20057;-65
2021/09/13 05:14:21;;;;;;;268.90;8.63;;;;;;;12.06;66.26;100138.88;10399110;28;20133;-65
2021/09/13 05:19:22;;;;;;;197.15;6.95;;;;;;;12.09;66.30;100141.28;10398762;28;20050;-65
2021/09/13 05:24:24;;;;;;;23.65;3.25;;;;;;;12.16;66.34;100139.13;10398400;28;20363;-65
2021/09/13 05:29:26;;;;;;;37.58;3.90;;;;;;;12.16;66.15;100144.38;10398553;28;20055;-65
2021/09/13 05:34:27;;;;;;;41.33;3.50;;;;;;;12.15;65.95;100143.53;10398022;28;20060;-65
2021/09/13 05:39:30;;;;;;;58.85;4.30;;;;;;;12.24;66.02;100144.72;10398187;28;20057;-65
2021/09/13 05:44:32;;;;;;;41.28;3.60;;;;;;;12.33;65.74;100146.81;10398319;28;20049;-65
2021/09/13 05:49:34;;;;;;;34.15;4.07;;;;;;;12.37;65.47;100153.56;10397655;28;20148;-65
2021/09/13 05:54:36;;;;;;;47.92;4.68;;;;;;;12.20;65.83;100155.50;10395893;28;20049;-65
2021/09/13 05:59:37;;;;;;;97.28;4.53;;;;;;;12.28;65.69;100148.88;10397267;28;20136;-65
2021/09/13 06:04:40;;;;;;;67.05;4.82;;;;;;;12.25;65.89;100164.78;10397396;28;20064;-65
2021/09/13 06:09:41;;;;;;;149.52;5.85;;;;;;;12.32;65.83;100160.84;10396680;28;20046;-65
2021/09/13 06:14:44;;;;;;;148.20;5.97;;;;;;;12.52;65.21;100156.94;10395274;28;20528;-65
2021/09/13 06:19:47;;;;;;;146.00;6.38;;;;;;;12.62;64.91;100163.31;10396413;28;20103;-65
2021/09/13 06:24:49;;;;;;;182.60;7.07;;;;;;;12.72;64.65;100157.34;10396238;28;20463;-65
2021/09/13 06:29:51;;;;;;;17.33;3.05;;;;;;;13.06;64.22;100163.03;10395733;28;20072;-65
2021/09/13 06:34:53;;;;;;;284.75;7.45;;;;;;;13.01;63.81;100162.47;10395978;28;20053;-65
2021/09/13 06:39:58;;;;;;;136.52;5.60;;;;;;;12.74;64.66;100167.78;10394866;28;20080;-65
2021/09/13 06:45:08;;;;;;;248.30;8.93;;;;;;;13.00;64.22;100174.78;10395336;28;20136;-65
2021/09/13 06:50:20;;;;;;;104.57;6.90;;;;;;;13.31;63.69;100186.72;10395225;28;20136;-65
2021/09/13 06:55:23;;;;;;;77.75;6.50;;;;;;;13.50;63.52;100187.19;10395110;28;20064;-65
2021/09/13 07:00:24;;;;;;;478.38;14.20;;;;;;;13.55;63.00;100185.09;10394637;28;20088;-65
2021/09/13 07:05:26;;;;;;;317.25;9.27;;;;;;;13.64;62.40;100187.09;10394844;28;20058;-65
2021/09/13 07:10:28;;;;;;;18.42;4.60;;;;;;;13.76;62.64;100192.34;10393938;28;20504;-65
2021/09/13 07:15:30;;;;;;;101.05;7.28;;;;;;;14.02;62.06;100195.81;10394079;28;20505;-65
2021/09/13 07:20:32;;;;;;;111.60;5.95;;;;;;;14.05;61.83;100200.84;10394624;28;20054;-65
2021/09/13 07:25:34;;;;;;;194.90;11.25;;;;;;;14.06;61.81;100199.06;10392286;28;20533;-65
2021/09/13 07:30:35;;;;;;;163.80;8.35;;;;;;;13.98;62.25;100191.72;10393509;28;20063;-65
2021/09/13 07:35:37;;;;;;;62.92;6.70;;;;;;;14.37;62.02;100194.16;10393632;28;20046;-65
2021/09/13 07:40:41;;;;;;;94.18;12.25;;;;;;;14.35;61.93;100200.50;10393129;28;20438;-65
2021/09/13 07:45:43;;;;;;;68.22;10.98;;;;;;;14.20;62.34;100202.44;10393409;28;20156;-65
2021/09/13 07:50:45;;;;;;;24.73;8.65;;;;;;;14.39;61.83;100208.06;10393047;28;20440;-65
2021/09/13 07:55:47;;;;;;;16.30;8.05;;;;;;;14.93;61.45;100212.97;10392609;28;20120;-64
2021/09/13 08:00:49;;;;;;;88.05;11.15;;;;;;;15.23;60.43;100210.69;10393217;28;20084;-65
2021/09/13 08:05:51;;;;;;;37.53;10.25;;;;;;;14.92;61.12;100209.47;10392956;28;20053;-65
2021/09/13 08:10:53;;;;;;;18.13;9.55;;;;;;;15.00;61.23;100209.75;10390858;28;20149;-64
2021/09/13 08:15:54;;;;;;;51.53;11.68;;;;;;;14.99;61.25;100215.16;10392893;28;20070;-64
2021/09/13 08:20:56;;;;;;;12.35;10.60;;;;;;;14.84;61.85;100214.47;10392410;28;20053;-65
2021/09/13 08:25:58;;;;;;;14.05;9.38;;;;;;;15.27;61.16;100209.50;10392251;28;20132;-65
2021/09/13 08:31:00;;;;;;;26.92;14.88;;;;;;;15.50;60.07;100219.22;10392770;28;20394;-65
2021/09/13 08:36:03;;;;;;;16.92;11.05;;;;;;;15.69;60.22;100216.88;10392250;28;20107;-65
2021/09/13 08:41:06;;;;;;;14.98;11.23;;;;;;;15.82;59.81;100219.38;10397049;28;20491;-65
2021/09/13 08:46:19;;;;;;;16.52;12.27;;;;;;;15.83;60.12;100229.84;10399979;28;20089;-65
2021/09/13 08:51:30;;;;;;;16.27;13.23;;;;;;;15.84;60.44;100222.75;10400175;28;20076;-65
2021/09/13 08:57:17;;;;;;;18.77;13.85;;;;;;;16.15;59.89;100224.69;10399152;28;20083;-65
2021/09/13 09:01:59;;;;;;;15.73;14.02;;;;;;;16.47;58.90;100219.56;10398812;28;20050;-65
2021/09/13 09:07:23;;;;;;;18.63;14.90;;;;;;;16.10;59.66;100214.50;10398951;28;20060;-65
2021/09/13 09:12:25;;;;;;;33.03;14.52;;;;;;;16.52;58.72;100220.03;10399051;28;20057;-65
2021/09/13 09:17:28;;;;;;;18.40;13.95;;;;;;;16.74;58.88;100204.13;10398900;28;20148;-65
2021/09/13 09:22:33;;;;;;;18.02;12.90;;;;;;;16.93;57.77;100204.34;10398835;28;20128;-65
2021/09/13 09:28:01;;;;;;;19.85;12.18;;;;;;;17.24;57.25;100208.75;10398342;28;20587;-65
2021/09/13 09:33:17;;;;;;;17.35;12.02;;;;;;;17.51;56.85;100195.91;10398176;28;20053;-65
2021/09/13 09:38:40;;;;;;;14.85;11.38;;;;;;;17.75;55.37;100195.66;10398493;28;20156;-65
2021/09/13 09:43:49;;;;;;;21.23;11.80;;;;;;;18.00;54.96;100207.59;10397584;28;20068;-65
2021/09/13 09:49:02;;;;;;;12.70;10.20;;;;;;;18.67;54.03;100203.41;10396167;28;20092;-65
2021/09/13 09:54:10;;;;;;;15.15;10.25;;;;;;;18.88;51.75;100190.91;10397488;28;20053;-65
2021/09/13 09:59:14;;;;;;;14.85;10.52;;;;;;;18.86;53.35;100182.25;10397077;28;20071;-65
2021/09/13 10:04:26;;;;;;;13.40;9.38;;;;;;;19.12;52.15;100177.28;10397295;28;20085;-65
2021/09/13 10:09:30;;;;;;;14.13;9.10;;;;;;;19.63;50.98;100171.63;10396593;28;20434;-65
2021/09/13 10:14:33;;;;;;;13.60;9.55;;;;;;;19.59;50.73;100157.81;10396975;28;20140;-65
2021/09/13 10:19:35;;;;;;;14.15;9.43;;;;;;;19.70;50.61;100151.50;10396435;28;20402;-65
2021/09/13 10:24:40;;;;;;;12.50;9.20;;;;;;;19.73;50.60;100145.88;10396369;28;20075;-65
2021/09/13 10:29:42;;;;;;;14.70;8.55;;;;;;;19.81;50.57;100144.22;10395964;28;20613;-65
2021/09/13 10:34:49;;;;;;;11.27;8.20;;;;;;;19.96;49.48;100137.47;10395822;28;20133;-65
2021/09/13 10:39:54;;;;;;;10.70;7.78;;;;;;;20.19;48.88;100122.00;10396058;28;20576;-65
2021/09/13 10:45:02;;;;;;;12.65;7.55;;;;;;;20.17;48.78;100121.31;10394819;28;20509;-65
2021/09/13 10:50:23;;;;;;;13.23;7.35;;;;;;;19.99;48.40;100131.84;10395336;28;20049;-65
2021/09/13 10:55:29;;;;;;;9.82;6.38;;;;;;;20.06;48.87;100117.03;10394947;28;20581;-65
2021/09/13 11:00:40;;;;;;;10.40;6.15;;;;;;;20.20;47.80;100118.34;10394691;28;20053;-65
2021/09/13 11:05:42;;;;;;;10.68;6.80;;;;;;;20.35;48.00;100108.91;10394494;28;20053;-65
2021/09/13 11:10:44;;;;;;;11.93;6.10;;;;;;;20.56;47.89;100106.78;10394305;28;20097;-65
2021/09/13 11:15:52;;;;;;;11.43;6.18;;;;;;;20.69;45.79;100093.16;10394615;28;20077;-65
2021/09/13 11:20:57;;;;;;;10.68;7.53;;;;;;;20.87;45.69;100097.47;10394091;28;20322;-65
2021/09/13 11:25:59;;;;;;;10.77;6.63;;;;;;;21.05;44.64;100090.31;10392971;28;20061;-65
2021/09/13 11:31:00;;;;;;;7.82;4.80;;;;;;;21.12;43.99;100101.16;10393575;28;20065;-65
2021/09/13 11:36:02;;;;;;;10.07;4.45;;;;;;;21.18;43.45;100091.72;10393545;28;20053;-65
2021/09/13 11:41:14;;;;;;;9.30;4.47;;;;;;;21.14;42.94;100082.38;10393723;28;20351;-64
2021/09/13 11:46:16;;;;;;;7.55;3.80;;;;;;;21.37;42.08;100079.09;10393493;28;20116;-65
2021/09/13 11:51:17;;;;;;;8.32;4.90;;;;;;;21.56;41.41;100075.38;10393908;28;20432;-65
2021/09/13 11:56:19;;;;;;;6.03;3.38;;;;;;;21.42;39.80;100070.63;10393056;28;20084;-65
2021/09/13 12:01:21;;;;;;;8.20;3.58;;;;;;;21.52;40.35;100072.19;10391776;28;20060;-65
2021/09/13 12:06:24;;;;;;;6.65;4.45;;;;;;;21.56;40.93;100065.56;10392670;28;20272;-65
2021/09/13 12:11:26;;;;;;;7.95;4.53;;;;;;;21.99;40.81;100069.91;10392945;28;20063;-65
2021/09/13 12:16:28;;;;;;;11.10;4.03;;;;;;;22.34;40.80;100059.06;10400362;28;20501;-65
2021/09/13 12:21:30;;;;;;;7.50;4.40;;;;;;;22.21;38.96;100064.00;10401050;28;20067;-65
2021/09/13 12:26:34;;;;;;;6.45;4.15;;;;;;;22.11;38.26;100057.19;10418091;28;20061;-65
2021/09/13 12:31:35;;;;;;;10.00;4.30;;;;;;;22.26;39.04;100058.22;10400286;28;20569;-65
2021/09/13 12:36:37;;;;;;;7.13;3.65;;;;;;;22.26;38.12;100056.38;10400416;28;20112;-65
2021/09/13 12:41:42;;;;;;;7.22;4.20;;;;;;;22.22;38.06;100047.06;10398823;28;20144;-65
2021/09/13 12:46:49;;;;;;;5.82;3.05;;;;;;;22.24;36.95;100042.38;10399976;28;20052;-65
2021/09/13 12:52:00;;;;;;;6.78;3.38;;;;;;;22.21;36.38;100026.72;10400373;28;20140;-65
2021/09/13 12:57:04;;;;;;;6.20;3.17;;;;;;;22.09;37.58;100019.22;10399568;28;20093;-65
2021/09/13 13:02:18;;;;;;;7.15;3.25;;;;;;;22.48;37.42;100007.78;10399444;28;20467;-65
2021/09/13 13:07:21;;;;;;;7.60;3.28;;;;;;;22.81;37.06;99986.47;10399329;28;20057;-65
2021/09/13 13:12:23;;;;;;;6.20;2.72;;;;;;;22.66;37.30;99984.44;10399355;28;20064;-66
2021/09/13 13:17:30;;;;;;;5.47;3.00;;;;;;;22.54;37.90;99980.47;10398767;28;20057;-65
2021/09/13 13:22:32;;;;;;;7.90;4.03;;;;;;;22.73;37.62;99976.66;10398805;28;20059;-65
2021/09/13 13:27:34;;;;;;;6.72;3.33;;;;;;;23.06;37.32;99977.44;10397201;28;20055;-65
2021/09/13 13:32:35;;;;;;;7.93;2.72;;;;;;;22.83;36.78;99971.13;10398354;28;20099;-65
2021/09/13 13:37:37;;;;;;;6.85;2.78;;;;;;;23.10;36.92;99962.75;10398152;28;20144;-65
2021/09/13 13:42:39;;;;;;;5.38;2.85;;;;;;;22.97;36.39;99965.09;10398182;28;20140;-65
2021/09/13 13:47:43;;;;;;;5.25;3.00;;;;;;;23.09;35.71;99967.25;10398214;28;20080;-65
2021/09/13 13:52:47;;;;;;;4.50;2.60;;;;;;;23.12;35.63;99958.06;10398005;28;20136;-65
2021/09/13 13:57:49;;;;;;;5.38;2.70;;;;;;;23.28;36.28;99963.34;10397515;28;20061;-64
2021/09/13 14:02:51;;;;;;;4.95;2.72;;;;;;;23.48;35.19;99961.97;10396632;28;20054;-65
2021/09/13 14:07:54;;;;;;;6.65;2.60;;;;;;;23.61;35.48;99964.94;10396829;28;20395;-65
2021/09/13 14:12:56;;;;;;;7.97;2.60;;;;;;;23.72;35.19;99956.53;10397388;28;20050;-64
2021/09/13 14:17:58;;;;;;;4.47;2.50;;;;;;;23.72;35.63;99950.34;10396441;28;20474;-65
2021/09/13 14:22:59;;;;;;;5.03;2.47;;;;;;;23.86;35.30;99952.28;10396494;28;20140;-66
2021/09/13 14:28:02;;;;;;;6.43;2.15;;;;;;;23.92;35.31;99943.56;10396050;28;20404;-66
2021/09/13 14:33:03;;;;;;;7.95;2.53;;;;;;;24.02;33.85;99944.97;10396804;28;20064;-66
2021/09/13 14:38:05;;;;;;;3.90;2.30;;;;;;;23.97;35.06;99934.00;10395435;28;20053;-66
2021/09/13 14:43:07;;;;;;;5.00;2.38;;;;;;;24.00;34.50;99938.16;10395751;28;20323;-66
2021/09/13 14:48:09;;;;;;;5.97;2.28;;;;;;;23.90;35.21;99934.91;10396062;28;20059;-66
2021/09/13 14:53:11;;;;;;;5.43;2.25;;;;;;;23.93;35.42;99938.03;10395457;28;20448;-64
2021/09/13 14:58:14;;;;;;;4.45;2.22;;;;;;;23.85;35.39;99930.09;10394925;28;20399;-66
2021/09/13 15:03:15;;;;;;;3.45;2.00;;;;;;;23.46;36.19;99930.13;10394716;28;20061;-66
2021/09/13 15:08:17;;;;;;;4.40;2.28;;;;;;;23.43;35.40;99927.78;10394322;28;20400;-66
2021/09/13 15:13:19;;;;;;;5.20;2.47;;;;;;;23.49;36.31;99929.75;10394806;28;20168;-66
2021/09/13 15:18:21;;;;;;;6.43;2.40;;;;;;;23.48;37.47;99933.44;10394271;28;20057;-66
2021/09/13 15:23:23;;;;;;;3.42;2.10;;;;;;;23.48;37.39;99925.44;10394630;28;20136;-66
2021/09/13 15:28:24;;;;;;;5.45;2.00;;;;;;;23.27;36.76;99927.00;10393939;28;20054;-66
2021/09/13 15:33:26;;;;;;;5.30;2.35;;;;;;;23.08;38.02;99925.59;10394159;28;20175;-66
2021/09/13 15:38:39;;;;;;;8.07;3.15;;;;;;;23.10;38.59;99930.75;10393310;28;20134;-65
2021/09/13 15:43:40;;;;;;;4.30;2.28;;;;;;;22.95;37.74;99922.59;10393483;28;20400;-65
2021/09/13 15:48:42;;;;;;;4.80;2.30;;;;;;;22.73;39.27;99922.47;10393043;28;20111;-66
2021/09/13 15:53:44;;;;;;;3.90;2.17;;;;;;;22.54;40.19;99915.66;10392547;28;20523;-66
2021/09/13 15:58:46;;;;;;;4.93;2.50;;;;;;;22.59;40.48;99914.16;10393061;28;20061;-65
2021/09/13 16:03:48;;;;;;;3.67;2.22;;;;;;;22.65;40.43;99905.50;10391582;28;20421;-65
2021/09/13 16:08:51;;;;;;;6.63;2.50;;;;;;;22.68;40.89;99906.97;10392528;28;20490;-66
2021/09/13 16:13:52;;;;;;;5.55;2.28;;;;;;;22.73;43.17;99912.66;10392471;28;20060;-65
2021/09/13 16:18:54;;;;;;;5.57;2.42;;;;;;;22.77;44.50;99910.47;10392844;28;20580;-66
2021/09/13 16:23:56;;;;;;;4.65;2.60;;;;;;;22.65;44.66;99902.81;10392060;28;20417;-66
2021/09/13 16:28:58;;;;;;;8.15;2.50;;;;;;;22.68;44.28;99897.13;10392416;28;20055;-65
2021/09/13 16:33:59;;;;;;;9.43;2.72;;;;;;;22.71;44.45;99909.31;10392410;28;20049;-65
2021/09/13 16:39:05;;;;;;;7.40;2.53;;;;;;;22.74;43.50;99905.50;10391760;28;20564;-66
2021/09/13 16:44:07;;;;;;;3.45;2.40;;;;;;;22.67;42.67;99899.97;10392357;28;20059;-65
2021/09/13 16:49:09;;;;;;;5.93;2.47;;;;;;;22.31;43.07;99904.03;10392191;28;20456;-65
2021/09/13 16:54:10;;;;;;;5.80;2.53;;;;;;;22.04;44.30;99904.34;10391829;28;20085;-66
2021/09/13 16:59:13;;;;;;;5.78;2.40;;;;;;;21.89;44.52;99912.09;10392463;28;20056;-65
2021/09/13 17:04:19;;;;;;;5.35;2.67;;;;;;;21.67;46.42;99910.91;10399495;28;20103;-65
2021/09/13 17:09:21;;;;;;;7.65;2.80;;;;;;;21.39;48.26;99906.84;10399240;28;20057;-65
2021/09/13 17:14:23;;;;;;;7.10;2.70;;;;;;;21.08;49.09;99909.16;10399088;28;20391;-66
2021/09/13 17:19:25;;;;;;;9.50;3.05;;;;;;;20.77;49.93;99904.50;10399122;28;20065;-65
2021/09/13 17:24:26;;;;;;;5.78;2.72;;;;;;;20.49;49.51;99908.28;10398772;28;20057;-65
2021/09/13 17:29:28;;;;;;;5.97;3.17;;;;;;;20.03;50.98;99909.41;10398335;28;20488;-65
2021/09/13 17:34:31;;;;;;;4.75;2.80;;;;;;;19.68;51.64;99912.00;10398506;28;20138;-65
2021/09/13 17:39:33;;;;;;;15.85;3.22;;;;;;;19.48;52.39;99906.81;10398374;28;20057;-65
2021/09/13 17:44:34;;;;;;;10.80;3.58;;;;;;;19.25;53.10;99896.75;10398167;28;20140;-66
2021/09/13 17:49:36;;;;;;;4.60;3.22;;;;;;;19.08;54.36;99908.13;10398047;28;20089;-65
2021/09/13 17:54:38;;;;;;;10.10;3.10;;;;;;;18.90;54.24;99908.03;10397282;28;20136;-65
2021/09/13 17:59:39;;;;;;;23.67;3.88;;;;;;;18.70;54.27;99913.53;10397614;28;20301;-65
2021/09/13 18:04:41;;;;;;;5.45;3.42;;;;;;;18.49;55.33;99911.91;10397717;28;20046;-65
2021/09/13 18:09:43;;;;;;;8.38;3.50;;;;;;;18.38;55.86;99912.06;10396606;28;20149;-65
2021/09/13 18:14:45;;;;;;;8.68;3.92;;;;;;;18.23;56.32;99913.47;10397059;28;20210;-65
2021/09/13 18:19:47;;;;;;;6.15;3.40;;;;;;;18.11;56.35;99921.66;10396576;28;20064;-65
2021/09/13 18:24:49;;;;;;;5.68;3.55;;;;;;;17.96;56.63;99923.03;10396237;28;20053;-65
2021/09/13 18:29:50;;;;;;;10.70;3.90;;;;;;;17.75;57.38;99920.56;10396510;28;20204;-65
2021/09/13 18:34:52;;;;;;;5.22;3.35;;;;;;;17.54;58.07;99923.28;10396171;28;20140;-65
2021/09/13 18:39:54;;;;;;;11.52;4.25;;;;;;;17.48;58.20;99912.41;10395722;28;20061;-65
2021/09/13 18:44:55;;;;;;;7.10;4.00;;;;;;;17.34;58.52;99918.09;10395657;28;20508;-65
2021/09/13 18:49:57;;;;;;;10.18;4.07;;;;;;;17.28;58.99;99927.34;10395390;28;20417;-65
2021/09/13 18:54:59;;;;;;;6.80;3.92;;;;;;;17.16;59.20;99931.03;10395308;28;20060;-65
2021/09/13 19:00:02;;;;;;;10.23;4.32;;;;;;;16.99;59.38;99931.69;10395192;28;20057;-65
2021/09/13 19:05:04;;;;;;;6.13;4.15;;;;;;;16.90;59.77;99943.88;10395223;28;20133;-65
2021/09/13 19:10:07;;;;;;;10.68;4.15;;;;;;;16.85;59.80;99945.25;10394341;28;20144;-65
2021/09/13 19:15:09;;;;;;;6.10;4.25;;;;;;;16.79;60.11;99951.88;10394336;28;20057;-64
2021/09/13 19:20:11;;;;;;;6.15;4.47;;;;;;;16.69;60.38;99950.97;10394524;28;20144;-65
2021/09/13 19:25:13;;;;;;;6.47;4.30;;;;;;;16.58;60.65;99947.56;10393790;28;20064;-64
2021/09/13 19:30:14;;;;;;;11.35;4.57;;;;;;;16.48;61.21;99955.44;10393898;28;20048;-65
2021/09/13 19:35:17;;;;;;;12.18;5.07;;;;;;;16.23;61.58;99955.75;10393726;28;20493;-65
2021/09/13 19:40:18;;;;;;;7.55;4.65;;;;;;;16.16;61.87;99950.16;10392010;28;20219;-65
2021/09/13 19:45:20;;;;;;;10.10;5.28;;;;;;;16.09;61.88;99950.78;10393762;28;20069;-64
2021/09/13 19:50:22;;;;;;;8.55;5.22;;;;;;;15.92;61.94;99954.78;10392075;28;20064;-65
2021/09/13 19:55:23;;;;;;;7.85;5.53;;;;;;;15.59;62.42;99961.97;10392962;28;20502;-64
2021/09/13 20:00:26;;;;;;;14.23;4.72;;;;;;;15.63;62.55;99964.25;10393483;28;20071;-65
2021/09/13 20:05:32;;;;;;;11.07;5.38;;;;;;;15.76;62.42;99966.69;10392703;28;20134;-65
2021/09/13 20:10:36;;;;;;;8.25;5.25;;;;;;;15.66;62.18;99965.75;10392147;28;20136;-64
2021/09/13 20:15:37;;;;;;;9.65;4.97;;;;;;;15.56;62.82;99973.59;10393266;28;20136;-64
2021/09/13 20:20:40;;;;;;;7.68;4.78;;;;;;;15.60;62.58;99972.38;10392390;28;20497;-64
2021/09/13 20:25:48;;;;;;;10.40;6.32;;;;;;;15.56;62.94;99976.22;10394934;28;20136;-64
2021/09/13 20:30:51;;;;;;;8.80;5.85;;;;;;;15.36;62.83;99976.94;10414398;28;20448;-64
2021/09/13 20:35:53;;;;;;;11.90;5.55;;;;;;;15.42;63.11;99985.19;10396091;28;20068;-64
2021/09/13 20:40:54;;;;;;;9.95;5.85;;;;;;;15.43;63.08;99986.00;10400197;28;20334;-64
2021/09/13 20:45:56;;;;;;;7.45;5.68;;;;;;;15.38;63.00;99981.13;10400499;28;20061;-64
2021/09/13 20:50:58;;;;;;;11.43;6.45;;;;;;;15.34;62.93;99976.22;10398818;28;20068;-64
2021/09/13 20:56:01;;;;;;;10.95;6.53;;;;;;;15.00;63.42;99967.44;10400398;28;20050;-65
2021/09/13 21:01:03;;;;;;;11.35;6.55;;;;;;;15.00;63.64;99977.16;10399954;28;20618;-64
2021/09/13 21:06:05;;;;;;;9.90;5.95;;;;;;;15.00;63.63;99972.72;10399248;28;20064;-65
2021/09/13 21:11:08;;;;;;;7.70;6.05;;;;;;;14.85;63.89;99970.44;10399562;28;20061;-64
2021/09/13 21:16:09;;;;;;;9.95;6.55;;;;;;;14.86;64.07;99974.75;10399288;28;20056;-64
2021/09/13 21:21:11;;;;;;;11.05;6.93;;;;;;;14.81;64.06;99969.84;10399256;28;20127;-65
2021/09/13 21:26:13;;;;;;;11.95;7.10;;;;;;;14.79;63.95;99978.78;10398706;28;20055;-64
2021/09/13 21:31:14;;;;;;;9.00;5.68;;;;;;;14.84;64.11;99977.47;10399001;28;20224;-64
2021/09/13 21:36:17;;;;;;;10.63;6.30;;;;;;;14.92;63.79;99975.09;10398355;28;20053;-64
2021/09/13 21:41:18;;;;;;;24.58;7.05;;;;;;;14.81;63.46;99977.72;10397914;28;20123;-65
2021/09/13 21:46:20;;;;;;;9.73;7.20;;;;;;;14.57;64.14;99979.59;10397504;28;20059;-65
2021/09/13 21:51:22;;;;;;;9.18;6.78;;;;;;;14.61;64.31;99973.16;10397866;28;20557;-64
2021/09/13 21:56:28;;;;;;;13.38;6.85;;;;;;;14.67;64.13;99975.31;10397684;28;20049;-65
2021/09/13 22:01:30;;;;;;;12.07;7.20;;;;;;;14.59;64.28;99983.78;10397171;28;20562;-64
2021/09/13 22:06:32;;;;;;;12.60;6.85;;;;;;;14.65;64.08;99971.13;10396688;28;20147;-65
2021/09/13 22:11:34;;;;;;;16.90;6.07;;;;;;;14.57;63.95;99969.88;10397066;28;20435;-64
2021/09/13 22:16:36;;;;;;;14.40;7.00;;;;;;;14.47;64.36;99968.06;10397181;28;20056;-64
2021/09/13 22:21:37;;;;;;;14.10;6.50;;;;;;;14.46;64.46;99977.72;10396719;28;20057;-64
2021/09/13 22:26:39;;;;;;;10.00;6.85;;;;;;;14.51;64.39;99980.88;10396489;28;20054;-64
2021/09/13 22:31:41;;;;;;;11.07;6.90;;;;;;;14.54;64.06;99980.66;10395697;28;20144;-64
2021/09/13 22:36:43;;;;;;;11.63;8.13;;;;;;;14.27;64.38;99985.31;10396222;28;20045;-64
2021/09/13 22:41:44;;;;;;;13.18;6.50;;;;;;;14.27;64.60;99977.41;10395732;28;20053;-65
2021/09/13 22:46:46;;;;;;;12.10;6.88;;;;;;;14.36;64.45;99986.41;10395692;28;20064;-65
2021/09/13 22:51:48;;;;;;;11.95;7.70;;;;;;;14.24;64.12;99982.06;10395562;28;20061;-64
2021/09/13 22:56:50;;;;;;;17.73;6.75;;;;;;;14.16;64.38;99985.28;10394679;28;20060;-65
2021/09/13 23:01:51;;;;;;;9.98;7.75;;;;;;;13.94;64.66;99976.44;10394932;28;20068;-65
2021/09/13 23:06:53;;;;;;;15.85;6.88;;;;;;;13.95;64.98;99980.72;10394824;28;20421;-64